Home   Weather   Morocco   Marrakech   Past weeks
Flag for Morocco

Past Weather in Marrakech, Morocco — May 2022

Currently: 109 °F. Passing clouds. (Weather station: Marrakech Airport, Morocco). See more current weather

May 2022 Weather in Marrakech — Graph

°F

High & Low Weather Summary for May 2022

 TemperatureHumidityPressure
High108 °F (May 19, 3:00 pm)88% (May 24, 7:30 am)30.15 "Hg (May 24, 7:30 am)
Low55 °F (May 2, 6:00 am)8% (May 19, 3:00 pm)29.80 "Hg (May 19, 5:00 pm)
Average77 °F45%30.00 "Hg
* Reported May 1 1:00 am — May 31 11:30 pm, Marrakech. Weather by CustomWeather, © 2024

Note: Actual official high and low records may vary slightly from our data, if they occured in-between our weather recording intervals... More about our weather records

Marrakech Weather History for May 1, 2022

Scroll right to see more
 ConditionsComfort  
Time TempWeatherWind HumidityBarometerVisibility
1:00 am
Sun, May 1
68 °FClear.8 mph49%30.09 "Hg10 mi
1:30 am64 °FClear.5 mph52%30.09 "Hg10 mi
2:00 am68 °FClear.6 mph49%30.09 "Hg10 mi
2:30 am68 °FClear.6 mph46%30.09 "Hg10 mi
3:00 am63 °FClear.5 mph52%30.09 "Hg10 mi
3:30 am63 °FClear.2 mph52%30.09 "Hg10 mi
4:00 am63 °FClear.2 mph52%30.09 "Hg10 mi
4:30 am63 °FClear.3 mph52%30.09 "Hg10 mi
5:00 am61 °FSunny.2 mph55%30.09 "Hg10 mi
5:30 am63 °FSunny.2 mph52%30.12 "Hg10 mi
6:00 am61 °FSunny.1 mph55%30.12 "Hg10 mi
6:30 am61 °FSunny.1 mph59%30.12 "Hg10 mi
7:30 am70 °FSunny.1 mph46%30.12 "Hg10 mi
8:00 am70 °FPassing clouds.3 mph43%30.12 "HgN/A
8:30 am72 °FPassing clouds.3 mph44%30.12 "HgN/A
9:00 am75 °FPassing clouds.3 mph41%30.15 "HgN/A
9:30 am77 °FSunny.3 mph39%30.15 "Hg10 mi
10:00 am77 °FSunny.3 mph36%30.12 "Hg10 mi
10:30 am79 °FPassing clouds.3 mph34%30.12 "HgN/A
11:00 am81 °FPassing clouds.6 mph32%30.12 "HgN/A
11:30 am82 °FSunny.6 mph28%30.12 "Hg10 mi
12:00 pm84 °FSunny.3 mph29%30.12 "Hg10 mi
12:30 pm84 °FPassing clouds.5 mph27%30.09 "HgN/A
1:00 pm86 °FSunny.5 mph25%30.09 "Hg10 mi
1:30 pm86 °FSunny.6 mph24%30.09 "Hg10 mi
2:00 pm88 °FPassing clouds.7 mph22%30.07 "HgN/A
2:30 pm86 °FPassing clouds.7 mph22%30.07 "HgN/A
3:00 pm90 °FPassing clouds.8 mph20%30.07 "HgN/A
3:30 pm88 °FPassing clouds.9 mph17%30.07 "HgN/A
4:00 pm88 °FPassing clouds.10 mph18%30.04 "HgN/A
4:30 pm88 °FPassing clouds.8 mph19%30.04 "HgN/A
5:00 pm86 °FPassing clouds.10 mph22%30.07 "HgN/A
5:30 pm86 °FPassing clouds.13 mph22%30.07 "HgN/A
6:00 pm84 °FScattered clouds.8 mph23%30.07 "HgN/A
6:30 pm82 °FPassing clouds.10 mph25%30.07 "HgN/A
7:00 pm81 °FPassing clouds.10 mph28%30.07 "HgN/A
7:30 pm79 °FPassing clouds.12 mph34%30.09 "HgN/A
8:00 pm77 °FPassing clouds.10 mph36%30.09 "HgN/A
8:30 pm77 °FPassing clouds.10 mph36%30.09 "HgN/A
9:00 pm73 °FPassing clouds.9 mph38%30.12 "HgN/A
9:30 pm73 °FPassing clouds.7 mph38%30.15 "HgN/A
10:00 pm72 °FPassing clouds.8 mph38%30.15 "HgN/A
10:30 pm72 °FPassing clouds.6 mph38%30.15 "HgN/A
11:00 pm72 °FClear.7 mph36%30.15 "Hg10 mi
11:30 pm70 °FPassing clouds.7 mph35%30.12 "HgN/A
Weather by CustomWeather, © 2024

See weather overview